sensor_id;sensor_type;location;lat;lon;timestamp;pressure;altitude;pressure_sealevel;temperature;humidity
8717;BME280;4395;48.554;8.820;2022-09-02T00:01:00;95962.69;;;15.36;100.00
8717;BME280;4395;48.554;8.820;2022-09-02T00:03:04;95950.50;;;15.39;100.00
8717;BME280;4395;48.554;8.820;2022-09-02T00:05:07;95949.19;;;15.31;100.00
8717;BME280;4395;48.554;8.820;2022-09-02T00:07:10;95809.78;;;14.51;100.00
8717;BME280;4395;48.554;8.820;2022-09-02T00:09:15;95944.50;;;15.42;100.00
8717;BME280;4395;48.554;8.820;2022-09-02T00:11:21;95315.03;;;11.33;100.00
8717;BME280;4395;48.554;8.820;2022-09-02T00:13:24;95936.91;;;15.44;100.00
8717;BME280;4395;48.554;8.820;2022-09-02T00:15:29;95946.66;;;15.45;100.00
8717;BME280;4395;48.554;8.820;2022-09-02T00:17:34;95943.69;;;15.41;100.00
8717;BME280;4395;48.554;8.820;2022-09-02T00:19:37;95940.78;;;15.33;100.00
8717;BME280;4395;48.554;8.820;2022-09-02T00:21:40;95939.72;;;15.29;99.82
8717;BME280;4395;48.554;8.820;2022-09-02T00:23:43;95988.22;;;15.25;100.00
8717;BME280;4395;48.554;8.820;2022-09-02T00:25:47;95936.19;;;14.84;100.00
8717;BME280;4395;48.554;8.820;2022-09-02T00:27:50;95318.28;;;11.09;100.00
8717;BME280;4395;48.554;8.820;2022-09-02T00:29:53;95938.50;;;15.11;100.00
8717;BME280;4395;48.554;8.820;2022-09-02T00:31:58;95814.75;;;14.28;100.00
8717;BME280;4395;48.554;8.820;2022-09-02T00:34:04;95444.16;;;12.04;100.00
8717;BME280;4395;48.554;8.820;2022-09-02T00:36:08;95938.75;;;15.15;100.00
8717;BME280;4395;48.554;8.820;2022-09-02T00:38:11;95931.75;;;15.03;99.92
8717;BME280;4395;48.554;8.820;2022-09-02T00:40:14;95794.25;;;14.17;100.00
8717;BME280;4395;48.554;8.820;2022-09-02T00:42:18;95929.66;;;14.95;100.00
8717;BME280;4395;48.554;8.820;2022-09-02T00:44:21;95931.00;;;14.93;100.00
8717;BME280;4395;48.554;8.820;2022-09-02T00:46:28;95929.69;;;14.85;100.00
8717;BME280;4395;48.554;8.820;2022-09-02T00:48:33;95931.28;;;14.91;100.00
8717;BME280;4395;48.554;8.820;2022-09-02T00:50:37;95924.25;;;14.90;100.00
8717;BME280;4395;48.554;8.820;2022-09-02T00:52:42;95920.75;;;14.90;100.00
8717;BME280;4395;48.554;8.820;2022-09-02T00:54:49;95834.38;;;13.74;100.00
8717;BME280;4395;48.554;8.820;2022-09-02T00:56:54;95913.84;;;14.63;100.00
8717;BME280;4395;48.554;8.820;2022-09-02T00:58:58;95949.59;;;14.50;100.00
8717;BME280;4395;48.554;8.820;2022-09-02T01:01:04;95737.56;;;13.32;100.00
8717;BME280;4395;48.554;8.820;2022-09-02T01:03:10;95589.31;;;12.51;100.00
8717;BME280;4395;48.554;8.820;2022-09-02T01:05:17;95460.31;;;10.03;100.00
8717;BME280;4395;48.554;8.820;2022-09-02T01:07:21;95940.09;;;14.58;100.00
8717;BME280;4395;48.554;8.820;2022-09-02T01:09:24;95947.19;;;14.33;100.00
8717;BME280;4395;48.554;8.820;2022-09-02T01:11:29;95919.06;;;14.34;100.00
8717;BME280;4395;48.554;8.820;2022-09-02T01:13:41;95919.06;;;14.44;100.00
8717;BME280;4395;48.554;8.820;2022-09-02T01:15:47;95930.50;;;13.96;100.00
8717;BME280;4395;48.554;8.820;2022-09-02T01:17:51;94966.50;;;8.12;100.00
8717;BME280;4395;48.554;8.820;2022-09-02T01:19:58;95191.56;;;9.16;100.00
8717;BME280;4395;48.554;8.820;2022-09-02T01:22:14;95918.56;;;14.22;100.00
8717;BME280;4395;48.554;8.820;2022-09-02T01:24:18;95919.63;;;14.31;100.00
8717;BME280;4395;48.554;8.820;2022-09-02T01:26:22;95845.19;;;13.74;100.00
8717;BME280;4395;48.554;8.820;2022-09-02T01:28:26;95919.63;;;14.26;100.00
8717;BME280;4395;48.554;8.820;2022-09-02T01:30:31;95773.41;;;12.67;100.00
8717;BME280;4395;48.554;8.820;2022-09-02T01:32:34;95967.75;;;14.14;100.00
8717;BME280;4395;48.554;8.820;2022-09-02T01:34:37;95870.59;;;13.23;100.00
8717;BME280;4395;48.554;8.820;2022-09-02T01:36:41;95923.75;;;14.03;100.00
8717;BME280;4395;48.554;8.820;2022-09-02T01:38:46;95922.16;;;13.82;100.00
8717;BME280;4395;48.554;8.820;2022-09-02T01:40:49;95913.19;;;14.07;100.00
8717;BME280;4395;48.554;8.820;2022-09-02T01:42:55;95913.69;;;14.19;100.00
8717;BME280;4395;48.554;8.820;2022-09-02T01:44:59;95914.00;;;14.07;100.00
8717;BME280;4395;48.554;8.820;2022-09-02T01:47:05;95644.81;;;12.37;100.00
8717;BME280;4395;48.554;8.820;2022-09-02T01:49:08;95913.72;;;14.14;100.00
8717;BME280;4395;48.554;8.820;2022-09-02T01:51:16;95922.94;;;14.03;100.00
8717;BME280;4395;48.554;8.820;2022-09-02T01:53:20;95919.44;;;13.97;100.00
8717;BME280;4395;48.554;8.820;2022-09-02T01:55:26;95913.50;;;13.90;100.00
8717;BME280;4395;48.554;8.820;2022-09-02T01:57:29;95920.25;;;13.88;100.00
8717;BME280;4395;48.554;8.820;2022-09-02T01:59:33;95911.59;;;13.96;100.00
8717;BME280;4395;48.554;8.820;2022-09-02T02:01:35;95907.81;;;13.97;100.00
8717;BME280;4395;48.554;8.820;2022-09-02T02:03:38;95917.78;;;14.06;100.00
8717;BME280;4395;48.554;8.820;2022-09-02T02:05:42;95658.03;;;12.33;100.00
8717;BME280;4395;48.554;8.820;2022-09-02T02:07:49;95590.13;;;12.01;100.00
8717;BME280;4395;48.554;8.820;2022-09-02T02:09:53;95910.50;;;14.02;100.00
8717;BME280;4395;48.554;8.820;2022-09-02T02:11:59;95904.03;;;13.98;100.00
8717;BME280;4395;48.554;8.820;2022-09-02T02:14:04;95906.22;;;13.75;100.00
8717;BME280;4395;48.554;8.820;2022-09-02T02:16:08;95965.41;;;12.79;100.00
8717;BME280;4395;48.554;8.820;2022-09-02T02:18:12;95894.31;;;13.10;100.00
8717;BME280;4395;48.554;8.820;2022-09-02T02:20:17;95623.44;;;11.64;100.00
8717;BME280;4395;48.554;8.820;2022-09-02T02:22:20;95905.06;;;14.12;100.00
8717;BME280;4395;48.554;8.820;2022-09-02T02:24:23;95733.50;;;12.79;100.00
8717;BME280;4395;48.554;8.820;2022-09-02T02:26:26;95910.78;;;13.90;100.00
8717;BME280;4395;48.554;8.820;2022-09-02T02:28:31;95480.22;;;11.42;100.00
8717;BME280;4395;48.554;8.820;2022-09-02T02:30:35;95884.09;;;13.48;100.00
8717;BME280;4395;48.554;8.820;2022-09-02T02:32:40;95899.72;;;13.92;100.00
8717;BME280;4395;48.554;8.820;2022-09-02T02:34:46;95902.44;;;13.87;100.00
8717;BME280;4395;48.554;8.820;2022-09-02T02:36:49;95659.63;;;12.24;100.00
8717;BME280;4395;48.554;8.820;2022-09-02T02:38:53;95905.69;;;13.78;100.00
8717;BME280;4395;48.554;8.820;2022-09-02T02:40:57;95900.81;;;13.70;100.00
8717;BME280;4395;48.554;8.820;2022-09-02T02:43:00;95903.78;;;13.74;100.00
8717;BME280;4395;48.554;8.820;2022-09-02T02:45:07;95903.78;;;13.84;100.00
8717;BME280;4395;48.554;8.820;2022-09-02T02:47:16;95745.34;;;12.47;100.00
8717;BME280;4395;48.554;8.820;2022-09-02T02:49:19;95764.53;;;12.92;100.00
8717;BME280;4395;48.554;8.820;2022-09-02T02:51:24;95694.97;;;12.48;100.00
8717;BME280;4395;48.554;8.820;2022-09-02T02:53:28;95897.06;;;13.66;100.00
8717;BME280;4395;48.554;8.820;2022-09-02T02:55:31;95900.81;;;13.70;100.00
8717;BME280;4395;48.554;8.820;2022-09-02T02:57:36;95643.19;;;12.15;100.00
8717;BME280;4395;48.554;8.820;2022-09-02T02:59:40;95904.31;;;13.91;100.00
8717;BME280;4395;48.554;8.820;2022-09-02T03:01:47;95900.53;;;13.92;100.00
8717;BME280;4395;48.554;8.820;2022-09-02T03:03:50;95896.50;;;13.79;100.00
8717;BME280;4395;48.554;8.820;2022-09-02T03:05:56;95904.06;;;13.72;100.00
8717;BME280;4395;48.554;8.820;2022-09-02T03:08:02;95896.50;;;13.74;100.00
8717;BME280;4395;48.554;8.820;2022-09-02T03:10:09;95886.78;;;13.17;100.00
8717;BME280;4395;48.554;8.820;2022-09-02T03:12:14;95718.56;;;11.90;100.00
8717;BME280;4395;48.554;8.820;2022-09-02T03:14:18;94817.69;;;6.74;100.00
8717;BME280;4395;48.554;8.820;2022-09-02T03:16:21;95900.56;;;13.51;100.00
8717;BME280;4395;48.554;8.820;2022-09-02T03:18:28;95899.75;;;13.46;100.00
8717;BME280;4395;48.554;8.820;2022-09-02T03:20:32;95891.66;;;13.26;100.00
8717;BME280;4395;48.554;8.820;2022-09-02T03:22:38;95889.50;;;13.28;100.00
8717;BME280;4395;48.554;8.820;2022-09-02T03:24:41;95897.34;;;13.39;100.00
8717;BME280;4395;48.554;8.820;2022-09-02T03:26:45;95633.19;;;11.80;100.00
8717;BME280;4395;48.554;8.820;2022-09-02T03:28:49;95833.59;;;13.03;100.00
8717;BME280;4395;48.554;8.820;2022-09-02T03:30:55;95895.97;;;13.47;100.00
8717;BME280;4395;48.554;8.820;2022-09-02T03:33:01;95892.19;;;13.23;100.00
8717;BME280;4395;48.554;8.820;2022-09-02T03:35:12;95885.72;;;13.29;100.00
8717;BME280;4395;48.554;8.820;2022-09-02T03:37:16;94393.59;;;3.19;100.00
8717;BME280;4395;48.554;8.820;2022-09-02T03:39:19;95902.88;;;12.87;100.00
8717;BME280;4395;48.554;8.820;2022-09-02T03:41:23;95892.19;;;13.23;100.00
8717;BME280;4395;48.554;8.820;2022-09-02T03:43:28;95890.81;;;13.10;100.00
8717;BME280;4395;48.554;8.820;2022-09-02T03:45:31;95896.22;;;13.15;100.00
8717;BME280;4395;48.554;8.820;2022-09-02T03:47:38;95733.47;;;12.23;100.00
8717;BME280;4395;48.554;8.820;2022-09-02T03:49:45;95120.78;;;8.28;100.00
8717;BME280;4395;48.554;8.820;2022-09-02T03:51:49;95890.59;;;13.32;100.00
8717;BME280;4395;48.554;8.820;2022-09-02T03:53:53;95776.31;;;11.67;100.00
8717;BME280;4395;48.554;8.820;2022-09-02T03:55:57;95726.16;;;12.13;100.00
8717;BME280;4395;48.554;8.820;2022-09-02T03:58:01;95890.81;;;13.05;100.00
8717;BME280;4395;48.554;8.820;2022-09-02T04:00:12;95153.91;;;8.22;100.00
8717;BME280;4395;48.554;8.820;2022-09-02T04:02:17;95716.16;;;11.94;100.00
8717;BME280;4395;48.554;8.820;2022-09-02T04:04:21;95489.38;;;10.53;100.00
8717;BME280;4395;48.554;8.820;2022-09-02T04:06:26;95890.53;;;13.01;100.00
8717;BME280;4395;48.554;8.820;2022-09-02T04:08:36;95879.69;;;12.86;100.00
8717;BME280;4395;48.554;8.820;2022-09-02T04:10:39;95896.13;;;12.84;100.00
8717;BME280;4395;48.554;8.820;2022-09-02T04:12:42;95886.72;;;12.92;100.00
8717;BME280;4395;48.554;8.820;2022-09-02T04:14:45;95983.25;;;12.85;100.00
8717;BME280;4395;48.554;8.820;2022-09-02T04:16:52;95393.03;;;9.72;100.00
8717;BME280;4395;48.554;8.820;2022-09-02T04:18:57;96079.81;;;12.88;100.00
8717;BME280;4395;48.554;8.820;2022-09-02T04:21:02;95888.03;;;12.79;100.00
8717;BME280;4395;48.554;8.820;2022-09-02T04:23:08;95963.81;;;12.83;100.00
8717;BME280;4395;48.554;8.820;2022-09-02T04:25:14;95815.97;;;12.44;100.00
8717;BME280;4395;48.554;8.820;2022-09-02T04:27:19;95454.72;;;9.08;100.00
8717;BME280;4395;48.554;8.820;2022-09-02T04:29:22;95697.44;;;11.62;100.00
8717;BME280;4395;48.554;8.820;2022-09-02T04:31:27;95884.25;;;12.80;100.00
8717;BME280;4395;48.554;8.820;2022-09-02T04:33:33;95694.41;;;11.43;100.00
8717;BME280;4395;48.554;8.820;2022-09-02T04:35:39;95924.41;;;12.72;100.00
8717;BME280;4395;48.554;8.820;2022-09-02T04:37:43;95666.78;;;10.63;100.00
8717;BME280;4395;48.554;8.820;2022-09-02T04:39:48;95447.44;;;9.03;100.00
8717;BME280;4395;48.554;8.820;2022-09-02T04:41:53;95881.81;;;12.79;100.00
8717;BME280;4395;48.554;8.820;2022-09-02T04:43:58;95595.47;;;10.98;100.00
8717;BME280;4395;48.554;8.820;2022-09-02T04:46:06;95760.88;;;12.00;100.00
8717;BME280;4395;48.554;8.820;2022-09-02T04:48:10;95879.94;;;12.79;100.00
8717;BME280;4395;48.554;8.820;2022-09-02T04:50:14;95885.59;;;12.78;100.00
8717;BME280;4395;48.554;8.820;2022-09-02T04:52:31;95744.69;;;11.89;100.00
8717;BME280;4395;48.554;8.820;2022-09-02T04:54:34;95789.19;;;12.12;100.00
8717;BME280;4395;48.554;8.820;2022-09-02T04:56:39;95875.06;;;12.71;100.00
8717;BME280;4395;48.554;8.820;2022-09-02T04:58:43;95878.31;;;12.73;100.00
8717;BME280;4395;48.554;8.820;2022-09-02T05:00:47;95878.84;;;12.70;100.00
8717;BME280;4395;48.554;8.820;2022-09-02T05:02:52;95871.78;;;12.59;100.00
8717;BME280;4395;48.554;8.820;2022-09-02T05:05:02;95882.88;;;12.63;100.00
8717;BME280;4395;48.554;8.820;2022-09-02T05:07:10;95824.28;;;12.28;100.00
8717;BME280;4395;48.554;8.820;2022-09-02T05:09:18;95880.72;;;12.75;100.00
8717;BME280;4395;48.554;8.820;2022-09-02T05:11:29;95880.72;;;12.75;100.00
8717;BME280;4395;48.554;8.820;2022-09-02T05:13:34;95632.44;;;11.22;100.00
8717;BME280;4395;48.554;8.820;2022-09-02T05:15:39;95630.00;;;11.21;100.00
8717;BME280;4395;48.554;8.820;2022-09-02T05:17:44;95777.09;;;12.20;100.00
8717;BME280;4395;48.554;8.820;2022-09-02T05:19:47;95880.50;;;12.86;100.00
8717;BME280;4395;48.554;8.820;2022-09-02T05:21:51;95873.22;;;12.92;100.00
8717;BME280;4395;48.554;8.820;2022-09-02T05:24:02;95883.19;;;12.92;100.00
8717;BME280;4395;48.554;8.820;2022-09-02T05:26:06;95879.69;;;12.91;100.00
8717;BME280;4395;48.554;8.820;2022-09-02T05:28:11;96009.97;;;12.92;100.00
8717;BME280;4395;48.554;8.820;2022-09-02T05:30:15;95883.75;;;12.94;100.00
8717;BME280;4395;48.554;8.820;2022-09-02T05:32:19;95882.91;;;12.88;100.00
8717;BME280;4395;48.554;8.820;2022-09-02T05:34:23;95860.81;;;12.86;100.00
8717;BME280;4395;48.554;8.820;2022-09-02T05:36:29;95854.03;;;12.73;100.00
8717;BME280;4395;48.554;8.820;2022-09-02T05:38:33;95920.19;;;13.01;100.00
8717;BME280;4395;48.554;8.820;2022-09-02T05:40:37;95881.41;;;13.17;100.00
8717;BME280;4395;48.554;8.820;2022-09-02T05:42:43;95884.09;;;13.17;100.00
8717;BME280;4395;48.554;8.820;2022-09-02T05:44:49;95881.69;;;13.21;100.00
8717;BME280;4395;48.554;8.820;2022-09-02T05:46:54;95881.69;;;13.26;100.00
8717;BME280;4395;48.554;8.820;2022-09-02T05:48:58;95882.50;;;13.32;100.00
8717;BME280;4395;48.554;8.820;2022-09-02T05:51:17;95887.63;;;13.33;100.00
8717;BME280;4395;48.554;8.820;2022-09-02T05:53:20;95880.31;;;13.34;100.00
8717;BME280;4395;48.554;8.820;2022-09-02T05:55:24;95885.72;;;13.39;100.00
8717;BME280;4395;48.554;8.820;2022-09-02T05:57:26;95887.63;;;13.43;100.00
8717;BME280;4395;48.554;8.820;2022-09-02T05:59:42;95887.34;;;13.50;100.00
8717;BME280;4395;48.554;8.820;2022-09-02T06:01:49;95886.25;;;13.51;100.00
8717;BME280;4395;48.554;8.820;2022-09-02T06:03:53;95892.75;;;13.60;100.00
8717;BME280;4395;48.554;8.820;2022-09-02T06:05:58;95884.63;;;13.65;100.00
8717;BME280;4395;48.554;8.820;2022-09-02T06:08:08;95883.00;;;13.74;100.00
8717;BME280;4395;48.554;8.820;2022-09-02T06:10:12;95690.38;;;12.64;100.00
8717;BME280;4395;48.554;8.820;2022-09-02T06:12:16;95885.13;;;13.88;100.00
8717;BME280;4395;48.554;8.820;2022-09-02T06:14:23;95881.63;;;13.92;100.00
8717;BME280;4395;48.554;8.820;2022-09-02T06:16:28;95877.84;;;13.93;100.00
8717;BME280;4395;48.554;8.820;2022-09-02T06:18:32;95877.78;;;14.08;100.00
8717;BME280;4395;48.554;8.820;2022-09-02T06:20:38;95879.09;;;14.26;100.00
8717;BME280;4395;48.554;8.820;2022-09-02T06:22:44;95879.06;;;14.31;100.00
8717;BME280;4395;48.554;8.820;2022-09-02T06:24:48;95873.09;;;14.39;100.00
8717;BME280;4395;48.554;8.820;2022-09-02T06:26:55;95743.41;;;13.65;100.00
8717;BME280;4395;48.554;8.820;2022-09-02T06:28:58;95879.81;;;14.57;100.00
8717;BME280;4395;48.554;8.820;2022-09-02T06:31:06;95845.53;;;14.32;100.00
8717;BME280;4395;48.554;8.820;2022-09-02T06:33:10;95497.19;;;12.23;100.00
8717;BME280;4395;48.554;8.820;2022-09-02T06:35:15;95878.34;;;14.75;100.00
8717;BME280;4395;48.554;8.820;2022-09-02T06:37:19;95879.38;;;14.84;100.00
8717;BME280;4395;48.554;8.820;2022-09-02T06:39:24;95884.41;;;15.01;100.00
8717;BME280;4395;48.554;8.820;2022-09-02T06:41:31;95879.75;;;15.11;99.61
8717;BME280;4395;48.554;8.820;2022-09-02T06:43:38;95421.84;;;11.78;98.74
8717;BME280;4395;48.554;8.820;2022-09-02T06:45:53;95873.94;;;15.28;99.61
8717;BME280;4395;48.554;8.820;2022-09-02T06:47:56;95938.84;;;15.38;97.54
8717;BME280;4395;48.554;8.820;2022-09-02T06:49:59;95882.50;;;15.40;97.01
8717;BME280;4395;48.554;8.820;2022-09-02T06:52:03;95885.66;;;15.53;96.38
8717;BME280;4395;48.554;8.820;2022-09-02T06:54:12;95612.81;;;13.95;94.67
8717;BME280;4395;48.554;8.820;2022-09-02T06:56:18;94861.31;;;9.19;93.87
8717;BME280;4395;48.554;8.820;2022-09-02T06:58:21;95870.56;;;15.81;94.53
8717;BME280;4395;48.554;8.820;2022-09-02T07:00:25;95865.69;;;15.83;95.14
8717;BME280;4395;48.554;8.820;2022-09-02T07:02:28;95893.91;;;15.77;93.88
8717;BME280;4395;48.554;8.820;2022-09-02T07:04:31;95871.47;;;16.00;93.55
8717;BME280;4395;48.554;8.820;2022-09-02T07:06:56;95872.69;;;16.13;93.34
8717;BME280;4395;48.554;8.820;2022-09-02T07:09:04;95866.34;;;16.22;92.47
8717;BME280;4395;48.554;8.820;2022-09-02T07:11:17;95867.25;;;16.36;91.92
8717;BME280;4395;48.554;8.820;2022-09-02T07:13:23;95858.47;;;16.45;91.20
8717;BME280;4395;48.554;8.820;2022-09-02T07:15:26;95628.06;;;14.83;89.34
8717;BME280;4395;48.554;8.820;2022-09-02T07:17:30;95861.50;;;16.62;88.77
8717;BME280;4395;48.554;8.820;2022-09-02T07:19:36;95867.28;;;16.55;88.78
8717;BME280;4395;48.554;8.820;2022-09-02T07:21:40;95865.81;;;16.68;88.18
8717;BME280;4395;48.554;8.820;2022-09-02T07:23:43;95663.88;;;15.51;87.67
8717;BME280;4395;48.554;8.820;2022-09-02T07:25:46;95680.75;;;15.43;87.33
8717;BME280;4395;48.554;8.820;2022-09-02T07:27:50;95867.13;;;16.70;88.18
8717;BME280;4395;48.554;8.820;2022-09-02T07:29:55;95855.19;;;16.90;87.37
8717;BME280;4395;48.554;8.820;2022-09-02T07:31:58;95863.69;;;17.02;85.09
8717;BME280;4395;48.554;8.820;2022-09-02T07:34:02;95588.81;;;15.33;84.81
8717;BME280;4395;48.554;8.820;2022-09-02T07:36:07;95856.22;;;17.13;85.47
8717;BME280;4395;48.554;8.820;2022-09-02T07:38:14;95856.13;;;17.18;84.14
8717;BME280;4395;48.554;8.820;2022-09-02T07:40:17;95857.44;;;17.21;83.51
8717;BME280;4395;48.554;8.820;2022-09-02T07:42:21;95860.75;;;17.36;83.32
8717;BME280;4395;48.554;8.820;2022-09-02T07:44:25;95852.41;;;17.47;82.32
8717;BME280;4395;48.554;8.820;2022-09-02T07:46:30;95862.47;;;17.46;81.44
8717;BME280;4395;48.554;8.820;2022-09-02T07:48:34;95854.16;;;17.56;81.03
8717;BME280;4395;48.554;8.820;2022-09-02T07:50:37;95856.44;;;17.68;81.38
8717;BME280;4395;48.554;8.820;2022-09-02T07:52:46;95856.06;;;17.75;80.59
8717;BME280;4395;48.554;8.820;2022-09-02T07:54:51;95849.41;;;17.81;79.67
8717;BME280;4395;48.554;8.820;2022-09-02T07:56:54;95842.88;;;17.82;79.63
8717;BME280;4395;48.554;8.820;2022-09-02T07:58:58;95852.56;;;17.88;80.60
8717;BME280;4395;48.554;8.820;2022-09-02T08:01:01;95851.66;;;17.92;77.86
8717;BME280;4395;48.554;8.820;2022-09-02T08:03:06;95847.53;;;17.95;76.29
8717;BME280;4395;48.554;8.820;2022-09-02T08:05:20;95879.56;;;18.12;77.13
8717;BME280;4395;48.554;8.820;2022-09-02T08:07:22;95847.28;;;18.24;74.99
8717;BME280;4395;48.554;8.820;2022-09-02T08:09:26;95872.81;;;17.95;75.93
8717;BME280;4395;48.554;8.820;2022-09-02T08:11:28;95724.28;;;17.72;74.67
8717;BME280;4395;48.554;8.820;2022-09-02T08:13:32;95855.03;;;18.58;75.12
8717;BME280;4395;48.554;8.820;2022-09-02T08:15:35;95849.59;;;18.44;73.78
8717;BME280;4395;48.554;8.820;2022-09-02T08:17:39;95866.34;;;18.65;73.91
8717;BME280;4395;48.554;8.820;2022-09-02T08:19:44;95858.03;;;18.84;72.81
8717;BME280;4395;48.554;8.820;2022-09-02T08:21:46;95853.78;;;18.91;70.66
8717;BME280;4395;48.554;8.820;2022-09-02T08:23:50;95860.75;;;18.98;70.17
8717;BME280;4395;48.554;8.820;2022-09-02T08:25:53;95847.88;;;19.12;70.84
8717;BME280;4395;48.554;8.820;2022-09-02T08:27:56;95846.50;;;19.01;70.04
8717;BME280;4395;48.554;8.820;2022-09-02T08:29:59;95856.59;;;19.00;72.31
8717;BME280;4395;48.554;8.820;2022-09-02T08:32:02;95855.94;;;19.17;69.78
8717;BME280;4395;48.554;8.820;2022-09-02T08:34:06;95853.47;;;19.29;66.24
8717;BME280;4395;48.554;8.820;2022-09-02T08:36:11;95848.28;;;19.41;65.92
8717;BME280;4395;48.554;8.820;2022-09-02T08:38:15;95491.28;;;17.28;67.09
8717;BME280;4395;48.554;8.820;2022-09-02T08:40:20;95616.78;;;17.25;64.48
8717;BME280;4395;48.554;8.820;2022-09-02T08:42:29;95853.13;;;19.67;63.09
8717;BME280;4395;48.554;8.820;2022-09-02T08:44:36;95719.63;;;18.77;63.87
8717;BME280;4395;48.554;8.820;2022-09-02T08:46:39;95693.66;;;18.93;63.02
8717;BME280;4395;48.554;8.820;2022-09-02T08:48:48;95843.94;;;19.85;60.51
8717;BME280;4395;48.554;8.820;2022-09-02T08:50:59;95844.44;;;19.87;61.40
8717;BME280;4395;48.554;8.820;2022-09-02T08:53:10;95857.50;;;19.99;60.07
8717;BME280;4395;48.554;8.820;2022-09-02T08:55:21;95847.78;;;20.15;60.86
8717;BME280;4395;48.554;8.820;2022-09-02T08:57:26;95837.22;;;20.22;59.39
8717;BME280;4395;48.554;8.820;2022-09-02T08:59:30;95842.84;;;20.26;59.59
8717;BME280;4395;48.554;8.820;2022-09-02T09:01:43;95834.78;;;20.51;60.45
8717;BME280;4395;48.554;8.820;2022-09-02T09:04:05;95700.13;;;19.59;59.03
8717;BME280;4395;48.554;8.820;2022-09-02T09:06:16;95833.72;;;20.78;58.35
8717;BME280;4395;48.554;8.820;2022-09-02T09:08:29;95841.09;;;20.78;57.89
8717;BME280;4395;48.554;8.820;2022-09-02T09:10:37;95833.09;;;20.81;58.24
8717;BME280;4395;48.554;8.820;2022-09-02T09:13:10;95828.47;;;20.99;57.40
8717;BME280;4395;48.554;8.820;2022-09-02T09:15:21;95835.22;;;21.02;57.30
8717;BME280;4395;48.554;8.820;2022-09-02T09:17:32;95762.88;;;20.73;57.28
8717;BME280;4395;48.554;8.820;2022-09-02T09:19:47;95831.25;;;21.25;56.74
8717;BME280;4395;48.554;8.820;2022-09-02T09:21:53;95826.25;;;21.53;56.33
8717;BME280;4395;48.554;8.820;2022-09-02T09:24:05;95625.25;;;20.40;55.65
8717;BME280;4395;48.554;8.820;2022-09-02T09:26:10;95837.94;;;21.71;53.34
8717;BME280;4395;48.554;8.820;2022-09-02T09:28:14;95833.41;;;21.92;53.96
8717;BME280;4395;48.554;8.820;2022-09-02T09:30:17;95823.56;;;22.00;53.49
8717;BME280;4395;48.554;8.820;2022-09-02T09:32:24;95820.31;;;22.15;53.50
8717;BME280;4395;48.554;8.820;2022-09-02T09:34:55;95803.59;;;22.08;52.96
8717;BME280;4395;48.554;8.820;2022-09-02T09:36:58;95765.19;;;21.87;53.33
8717;BME280;4395;48.554;8.820;2022-09-02T09:39:16;95819.06;;;22.42;51.90
8717;BME280;4395;48.554;8.820;2022-09-02T09:41:22;95818.97;;;22.59;50.68
8717;BME280;4395;48.554;8.820;2022-09-02T09:43:30;95814.41;;;22.72;49.80
8717;BME280;4395;48.554;8.820;2022-09-02T09:45:35;95808.97;;;22.63;48.70
8717;BME280;4395;48.554;8.820;2022-09-02T09:47:38;95814.19;;;22.77;48.43
8717;BME280;4395;48.554;8.820;2022-09-02T09:49:43;95816.00;;;22.73;48.10
8717;BME280;4395;48.554;8.820;2022-09-02T09:51:53;95804.34;;;22.85;49.31
8717;BME280;4395;48.554;8.820;2022-09-02T09:54:13;95810.53;;;22.73;51.79
8717;BME280;4395;48.554;8.820;2022-09-02T09:56:26;95454.59;;;20.51;50.32
8717;BME280;4395;48.554;8.820;2022-09-02T09:58:32;95849.69;;;23.03;48.93
8717;BME280;4395;48.554;8.820;2022-09-02T10:00:35;95809.84;;;23.26;48.47
8717;BME280;4395;48.554;8.820;2022-09-02T10:02:46;95808.25;;;23.46;48.06
8717;BME280;4395;48.554;8.820;2022-09-02T10:04:51;95811.50;;;23.39;48.08
8717;BME280;4395;48.554;8.820;2022-09-02T10:06:54;95813.97;;;23.74;47.44
8717;BME280;4395;48.554;8.820;2022-09-02T10:08:59;95659.34;;;22.38;46.69
8717;BME280;4395;48.554;8.820;2022-09-02T10:11:05;95770.81;;;23.95;45.95
8717;BME280;4395;48.554;8.820;2022-09-02T10:13:20;95797.34;;;24.03;44.69
8717;BME280;4395;48.554;8.820;2022-09-02T10:15:30;95790.91;;;23.87;45.42
8717;BME280;4395;48.554;8.820;2022-09-02T10:17:45;95272.38;;;20.48;45.84
8717;BME280;4395;48.554;8.820;2022-09-02T10:19:55;95745.25;;;23.58;46.10
8717;BME280;4395;48.554;8.820;2022-09-02T10:22:31;95792.25;;;24.26;44.82
8717;BME280;4395;48.554;8.820;2022-09-02T10:25:06;95793.53;;;24.41;43.68
8717;BME280;4395;48.554;8.820;2022-09-02T10:27:15;95626.69;;;23.53;44.72
8717;BME280;4395;48.554;8.820;2022-09-02T10:29:41;95787.09;;;24.61;43.51
8717;BME280;4395;48.554;8.820;2022-09-02T10:31:54;95357.41;;;21.80;43.21
8717;BME280;4395;48.554;8.820;2022-09-02T10:34:09;95770.16;;;24.47;43.20
8717;BME280;4395;48.554;8.820;2022-09-02T10:36:19;95767.63;;;24.79;42.90
8717;BME280;4395;48.554;8.820;2022-09-02T10:38:36;95775.94;;;25.07;41.50
8717;BME280;4395;48.554;8.820;2022-09-02T10:40:43;95728.06;;;25.08;40.83
8717;BME280;4395;48.554;8.820;2022-09-02T10:43:00;95770.66;;;25.42;39.96
8717;BME280;4395;48.554;8.820;2022-09-02T10:45:13;95768.22;;;25.52;40.26
8717;BME280;4395;48.554;8.820;2022-09-02T10:47:21;95764.16;;;25.62;39.39
8717;BME280;4395;48.554;8.820;2022-09-02T10:49:43;95758.59;;;25.74;39.29
8717;BME280;4395;48.554;8.820;2022-09-02T10:51:52;95755.34;;;24.88;39.22
8717;BME280;4395;48.554;8.820;2022-09-02T10:54:10;95745.94;;;25.02;39.49
8717;BME280;4395;48.554;8.820;2022-09-02T10:56:18;95759.75;;;25.73;38.02
8717;BME280;4395;48.554;8.820;2022-09-02T10:58:34;95749.84;;;26.00;37.48
8717;BME280;4395;48.554;8.820;2022-09-02T11:00:41;95742.94;;;26.22;37.25
8717;BME280;4395;48.554;8.820;2022-09-02T11:02:53;95741.63;;;26.47;36.01
8717;BME280;4395;48.554;8.820;2022-09-02T11:04:59;95749.84;;;26.63;36.32
8717;BME280;4395;48.554;8.820;2022-09-02T11:07:07;95731.84;;;26.34;36.40
8717;BME280;4395;48.554;8.820;2022-09-02T11:09:13;95735.13;;;26.24;35.78
8717;BME280;4395;48.554;8.820;2022-09-02T11:11:26;95735.66;;;26.45;36.05
8717;BME280;4395;48.554;8.820;2022-09-02T11:13:36;95725.22;;;26.70;35.56
8717;BME280;4395;48.554;8.820;2022-09-02T11:15:44;95727.03;;;26.47;35.02
8717;BME280;4395;48.554;8.820;2022-09-02T11:17:53;95712.50;;;26.66;35.05
8717;BME280;4395;48.554;8.820;2022-09-02T11:20:06;95662.03;;;26.62;34.77
8717;BME280;4395;48.554;8.820;2022-09-02T11:22:16;95730.56;;;27.56;33.94